Time;durP1;ratioP1;P1;durP2;ratioP2;P2;SDS_P1;SDS_P2;PMS_P1;PMS_P2;Temp;Humidity;BMP_temperature;BMP_pressure;BME280_temperature;BME280_humidity;BME280_pressure;Samples;Min_cycle;Max_cycle;Signal;HPM_P1;HPM_P2
2020/12/15 00:01:24;;;;;;;17.63;13.60;;;7.20;99.90;;;;;;5078158;28;20524;-65
2020/12/15 00:03:50;;;;;;;19.63;14.17;;;7.20;99.90;;;;;;5070078;28;20220;-62
2020/12/15 00:06:16;;;;;;;17.50;13.20;;;7.30;99.90;;;;;;5047146;28;20886;-65
2020/12/15 00:08:42;;;;;;;14.47;12.30;;;7.30;99.90;;;;;;5046309;28;20256;-62
2020/12/15 00:11:07;;;;;;;16.73;13.27;;;7.30;99.90;;;;;;5064950;28;20197;-64
2020/12/15 00:13:33;;;;;;;17.13;12.97;;;7.20;99.90;;;;;;5063111;28;20572;-65
2020/12/15 00:15:58;;;;;;;17.63;12.67;;;7.20;99.90;;;;;;5087916;28;20169;-75
2020/12/15 00:18:24;;;;;;;16.53;12.43;;;7.20;99.90;;;;;;5068145;28;20572;-64
2020/12/15 00:20:49;;;;;;;14.60;12.30;;;7.20;99.90;;;;;;5058514;28;20177;-64
2020/12/15 00:23:15;;;;;;;15.17;11.57;;;7.20;99.90;;;;;;5069541;28;20571;-64
2020/12/15 00:25:40;;;;;;;15.77;12.57;;;7.20;99.90;;;;;;5077765;28;20248;-63
2020/12/15 00:28:06;;;;;;;15.70;11.73;;;7.30;99.90;;;;;;5067188;28;20210;-63
2020/12/15 00:30:31;;;;;;;17.40;11.67;;;7.30;99.90;;;;;;5066965;28;20682;-64
2020/12/15 00:32:57;;;;;;;12.60;10.80;;;7.30;99.90;;;;;;5067047;28;20676;-64
2020/12/15 00:35:22;;;;;;;16.23;11.47;;;7.30;99.90;;;;;;5031084;28;20174;-62
2020/12/15 00:37:48;;;;;;;12.57;11.07;;;7.30;99.90;;;;;;5065769;28;20188;-63
2020/12/15 00:40:13;;;;;;;15.93;10.80;;;7.30;99.90;;;;;;5086859;28;20667;-64
2020/12/15 00:42:39;;;;;;;14.33;11.83;;;7.30;99.90;;;;;;5086890;28;20189;-64
2020/12/15 00:45:05;;;;;;;13.37;10.77;;;7.20;99.90;;;;;;5086859;28;20168;-63
2020/12/15 00:47:30;;;;;;;13.77;10.63;;;7.30;99.90;;;;;;5086996;28;20204;-63
2020/12/15 00:49:56;;;;;;;13.87;10.73;;;7.30;99.90;;;;;;5078807;28;20181;-62
2020/12/15 00:52:25;;;;;;;14.97;10.97;;;7.30;99.90;;;;;;5055926;28;20645;-61
2020/12/15 00:54:51;;;;;;;11.90;10.00;;;7.30;99.90;;;;;;5053070;28;20486;-63
2020/12/15 00:57:17;;;;;;;15.50;10.97;;;7.20;99.90;;;;;;5053477;28;20291;-63
2020/12/15 00:59:43;;;;;;;14.27;10.37;;;7.20;99.90;;;;;;5053340;28;20186;-62
2020/12/15 01:02:09;;;;;;;15.83;10.93;;;7.20;99.90;;;;;;5052779;28;20721;-63
2020/12/15 01:04:34;;;;;;;13.23;11.27;;;7.10;99.90;;;;;;5053113;28;20205;-62
2020/12/15 01:06:59;;;;;;;17.37;11.47;;;7.10;99.90;;;;;;5052727;28;20600;-62
2020/12/15 01:09:25;;;;;;;14.40;11.07;;;7.10;99.90;;;;;;5052072;28;20192;-62
2020/12/15 01:11:50;;;;;;;15.73;11.57;;;7.10;99.90;;;;;;5051759;28;20174;-63
2020/12/15 01:14:17;;;;;;;14.87;11.10;;;7.20;99.90;;;;;;5053701;28;20228;-66
2020/12/15 01:16:42;;;;;;;13.30;10.73;;;7.20;99.90;;;;;;5039289;28;20225;-65
2020/12/15 01:19:08;;;;;;;13.53;10.50;;;7.20;99.90;;;;;;5052006;28;20238;-59
2020/12/15 01:21:33;;;;;;;12.83;10.70;;;7.10;99.90;;;;;;5043071;28;20194;-60
2020/12/15 01:23:59;;;;;;;13.17;11.07;;;7.10;99.90;;;;;;5047373;28;20193;-61
2020/12/15 01:26:24;;;;;;;13.77;11.77;;;7.20;99.90;;;;;;5051871;28;20205;-59
2020/12/15 01:28:50;;;;;;;15.10;11.17;;;7.20;99.90;;;;;;5032895;28;20308;-59
2020/12/15 01:31:26;;;;;;;14.13;10.53;;;7.20;99.90;;;;;;5049574;28;20733;-60
2020/12/15 01:33:52;;;;;;;12.27;9.70;;;7.20;99.90;;;;;;5050418;28;20254;-59
2020/12/15 01:36:29;;;;;;;13.40;10.27;;;7.20;99.90;;;;;;5050117;28;20268;-60
2020/12/15 01:38:55;;;;;;;12.63;10.77;;;7.10;99.90;;;;;;5051261;28;20272;-58
2020/12/15 01:41:21;;;;;;;15.50;11.00;;;7.10;99.90;;;;;;5050600;28;20249;-58
2020/12/15 01:43:56;;;;;;;12.00;10.00;;;7.00;99.90;;;;;;5050503;28;20197;-59
2020/12/15 01:46:23;;;;;;;12.97;10.40;;;7.00;99.90;;;;;;5052607;28;20184;-58
2020/12/15 01:48:48;;;;;;;12.23;10.40;;;7.00;99.90;;;;;;5052292;28;20642;-58
2020/12/15 01:51:15;;;;;;;13.17;10.10;;;6.90;99.90;;;;;;5049329;28;20235;-57
2020/12/15 01:53:40;;;;;;;12.50;9.77;;;6.90;99.90;;;;;;5052143;28;20685;-60
2020/12/15 01:56:06;;;;;;;12.27;9.87;;;6.90;99.90;;;;;;5053153;28;20256;-61
2020/12/15 01:58:32;;;;;;;13.10;10.33;;;6.80;99.90;;;;;;5045054;28;20217;-64
2020/12/15 02:00:57;;;;;;;12.77;9.87;;;6.80;99.90;;;;;;5050692;28;20181;-64
2020/12/15 02:03:22;;;;;;;12.23;10.07;;;6.80;99.90;;;;;;5051474;28;20210;-65
2020/12/15 02:05:48;;;;;;;13.33;10.13;;;6.80;99.90;;;;;;5051890;28;20180;-65
2020/12/15 02:08:13;;;;;;;11.90;10.17;;;6.80;99.90;;;;;;5051714;28;20208;-65
2020/12/15 02:10:39;;;;;;;14.80;10.03;;;6.80;99.90;;;;;;5051598;28;20198;-65
2020/12/15 02:13:04;;;;;;;12.40;9.50;;;6.80;99.90;;;;;;5051510;28;20564;-64
2020/12/15 02:15:30;;;;;;;11.87;9.43;;;6.90;99.90;;;;;;5051884;28;20498;-64
2020/12/15 02:17:55;;;;;;;12.23;10.20;;;6.90;99.90;;;;;;5051598;28;20389;-64
2020/12/15 02:20:21;;;;;;;12.03;9.60;;;6.90;99.90;;;;;;5051235;28;20170;-65
2020/12/15 02:22:46;;;;;;;12.00;10.20;;;7.00;99.90;;;;;;5051403;28;20194;-66
2020/12/15 02:25:12;;;;;;;12.90;9.73;;;7.00;99.90;;;;;;5051585;28;20177;-65
2020/12/15 02:27:37;;;;;;;12.33;9.27;;;6.90;99.90;;;;;;5051454;28;20178;-65
2020/12/15 02:30:07;;;;;;;11.37;9.10;;;6.90;99.90;;;;;;5047967;28;20249;-65
2020/12/15 02:32:33;;;;;;;10.80;9.37;;;6.90;99.90;;;;;;5050825;28;20224;-65
2020/12/15 02:34:59;;;;;;;10.77;9.03;;;6.90;99.90;;;;;;5066006;28;20181;-64
2020/12/15 02:37:24;;;;;;;11.83;9.60;;;6.80;99.90;;;;;;5064041;28;20185;-67
2020/12/15 02:39:50;;;;;;;11.00;9.53;;;6.90;99.90;;;;;;5051095;28;20177;-66
2020/12/15 02:42:16;;;;;;;12.53;8.67;;;6.80;99.90;;;;;;5050866;28;20201;-64
2020/12/15 02:44:41;;;;;;;12.00;9.23;;;6.90;99.90;;;;;;5051164;28;20661;-65
2020/12/15 02:47:07;;;;;;;13.17;9.00;;;6.90;99.90;;;;;;5051033;28;20654;-65
2020/12/15 02:49:32;;;;;;;11.20;8.93;;;6.90;99.90;;;;;;5051010;28;20315;-67
2020/12/15 02:51:59;;;;;;;10.47;8.97;;;6.90;99.90;;;;;;5050624;28;20511;-65
2020/12/15 02:54:24;;;;;;;13.60;9.43;;;7.00;99.90;;;;;;5050864;28;20209;-65
2020/12/15 02:56:50;;;;;;;12.80;9.07;;;7.00;99.90;;;;;;5050973;28;20185;-64
2020/12/15 02:59:15;;;;;;;9.57;8.57;;;7.00;99.90;;;;;;5050735;28;20537;-64
2020/12/15 03:01:43;;;;;;;9.83;8.07;;;7.00;99.90;;;;;;5050659;28;20172;-67
2020/12/15 03:04:09;;;;;;;11.20;8.97;;;7.00;99.90;;;;;;5050652;28;20215;-66
2020/12/15 03:06:35;;;;;;;10.20;9.00;;;7.00;99.90;;;;;;5051016;28;20248;-66
2020/12/15 03:09:01;;;;;;;11.70;9.17;;;7.00;99.90;;;;;;5050744;28;20348;-64
2020/12/15 03:11:26;;;;;;;10.63;8.40;;;7.00;99.90;;;;;;5032700;28;20180;-64
2020/12/15 03:13:52;;;;;;;11.87;8.90;;;7.00;99.90;;;;;;5050558;28;20739;-64
2020/12/15 03:16:18;;;;;;;10.53;8.93;;;6.90;99.90;;;;;;5050559;28;20256;-63
2020/12/15 03:18:43;;;;;;;10.90;8.67;;;6.90;99.90;;;;;;5050710;28;20197;-66
2020/12/15 03:21:12;;;;;;;12.63;8.47;;;6.90;99.90;;;;;;5050152;28;20227;-64
2020/12/15 03:23:37;;;;;;;9.47;8.33;;;6.90;99.90;;;;;;5050588;28;20212;-65
2020/12/15 03:26:03;;;;;;;9.20;8.23;;;6.90;99.90;;;;;;5050453;28;20174;-64
2020/12/15 03:28:28;;;;;;;11.20;7.93;;;6.80;99.90;;;;;;5050918;28;20161;-64
2020/12/15 03:30:54;;;;;;;9.87;7.60;;;6.80;99.90;;;;;;5049861;28;20257;-65
2020/12/15 03:33:19;;;;;;;9.03;8.07;;;6.80;99.90;;;;;;5050516;28;20205;-65
2020/12/15 03:35:45;;;;;;;9.10;7.87;;;6.80;99.90;;;;;;5050431;28;20664;-63
2020/12/15 03:38:11;;;;;;;9.87;8.10;;;6.80;99.90;;;;;;5050474;28;20221;-64
2020/12/15 03:40:36;;;;;;;11.13;7.93;;;6.80;99.90;;;;;;5050467;28;20201;-63
2020/12/15 03:43:02;;;;;;;9.57;8.13;;;6.80;99.90;;;;;;5050195;28;20242;-64
2020/12/15 03:45:30;;;;;;;11.13;8.40;;;6.80;99.90;;;;;;5050077;28;20170;-65
2020/12/15 03:47:55;;;;;;;9.27;8.27;;;6.90;99.90;;;;;;5050651;28;20650;-64
2020/12/15 03:50:21;;;;;;;8.53;7.63;;;6.90;99.90;;;;;;5049979;28;20257;-64
2020/12/15 03:52:46;;;;;;;10.07;8.50;;;6.90;99.90;;;;;;5049742;28;20244;-64
2020/12/15 03:55:12;;;;;;;9.27;8.37;;;6.90;99.90;;;;;;5050014;28;20660;-62
2020/12/15 03:57:37;;;;;;;9.33;8.27;;;6.90;99.90;;;;;;5050110;28;20222;-64
2020/12/15 04:00:05;;;;;;;8.70;7.80;;;6.90;99.90;;;;;;5049935;28;20264;-64
2020/12/15 04:02:31;;;;;;;11.27;8.03;;;6.90;99.90;;;;;;5049756;28;20538;-65
2020/12/15 04:04:56;;;;;;;9.90;8.67;;;6.80;99.90;;;;;;5050000;28;20181;-62
2020/12/15 04:07:22;;;;;;;9.60;8.00;;;6.80;99.90;;;;;;5049859;28;20177;-63
2020/12/15 04:09:47;;;;;;;8.80;7.90;;;6.70;99.90;;;;;;5049912;28;20166;-64
2020/12/15 04:12:13;;;;;;;12.13;8.97;;;6.70;99.90;;;;;;5049635;28;20169;-63
2020/12/15 04:14:42;;;;;;;10.63;8.83;;;6.70;99.90;;;;;;5050421;28;20170;-63
2020/12/15 04:17:10;;;;;;;10.60;8.37;;;6.70;99.90;;;;;;5050040;28;20642;-63
2020/12/15 04:19:37;;;;;;;9.47;8.33;;;6.70;99.90;;;;;;5049995;28;20202;-66
2020/12/15 04:22:03;;;;;;;10.00;8.27;;;6.70;99.90;;;;;;5048377;28;20198;-63
2020/12/15 04:24:29;;;;;;;10.73;8.30;;;6.60;99.90;;;;;;5050689;28;20670;-64
2020/12/15 04:26:54;;;;;;;10.93;8.57;;;6.50;99.90;;;;;;5053746;28;20181;-63
2020/12/15 04:29:20;;;;;;;10.73;9.10;;;6.50;99.90;;;;;;5053946;28;20165;-65
2020/12/15 04:31:45;;;;;;;10.27;8.57;;;6.50;99.90;;;;;;5053366;28;20162;-64
2020/12/15 04:34:11;;;;;;;10.83;9.20;;;6.50;99.90;;;;;;5053635;28;20200;-63
2020/12/15 04:36:36;;;;;;;11.17;9.10;;;6.50;99.90;;;;;;5053751;28;20209;-63
2020/12/15 04:39:03;;;;;;;10.10;8.50;;;6.50;99.90;;;;;;5035531;28;20238;-63
2020/12/15 04:41:29;;;;;;;10.33;8.50;;;6.40;99.90;;;;;;5053292;28;20260;-65
2020/12/15 04:43:55;;;;;;;11.63;9.33;;;6.40;99.90;;;;;;5051380;28;20288;-64
2020/12/15 04:46:22;;;;;;;11.47;9.87;;;6.40;99.90;;;;;;5053213;28;20526;-64
2020/12/15 04:49:08;;;;;;;11.97;10.17;;;6.40;99.90;;;;;;5053735;28;20178;-64
2020/12/15 04:51:55;;;;;;;12.27;9.17;;;6.40;99.90;;;;;;5053072;28;20256;-64
2020/12/15 04:54:32;;;;;;;12.20;9.77;;;6.30;99.90;;;;;;5053066;28;20213;-65
2020/12/15 04:57:00;;;;;;;12.27;9.90;;;6.30;99.90;;;;;;5050236;28;20188;-64
2020/12/15 04:59:29;;;;;;;13.23;10.00;;;6.30;99.90;;;;;;5044752;28;20230;-64
2020/12/15 05:01:57;;;;;;;16.77;10.90;;;6.20;99.90;;;;;;5032958;28;20228;-64
2020/12/15 05:04:24;;;;;;;12.83;9.80;;;6.20;99.90;;;;;;5048179;28;20190;-64
2020/12/15 05:06:53;;;;;;;15.10;10.87;;;6.10;99.90;;;;;;5053130;28;20169;-64
2020/12/15 05:09:29;;;;;;;13.57;10.87;;;6.20;99.90;;;;;;5053317;28;20184;-65
2020/12/15 05:11:55;;;;;;;13.40;11.03;;;6.10;99.90;;;;;;5052747;28;20208;-66
2020/12/15 05:14:21;;;;;;;14.90;10.70;;;6.00;99.90;;;;;;5052611;28;20201;-65
2020/12/15 05:16:46;;;;;;;13.20;9.60;;;6.00;99.90;;;;;;5035888;28;20759;-64
2020/12/15 05:19:12;;;;;;;15.77;11.67;;;6.00;99.90;;;;;;5032783;28;20280;-65
2020/12/15 05:21:37;;;;;;;14.33;10.47;;;6.10;99.90;;;;;;5032693;28;20541;-64
2020/12/15 05:24:10;;;;;;;13.10;11.03;;;6.00;99.90;;;;;;5032976;28;20285;-64
2020/12/15 05:26:35;;;;;;;13.90;10.80;;;6.00;99.90;;;;;;5033418;28;20572;-64
2020/12/15 05:29:08;;;;;;;15.53;11.23;;;6.00;99.90;;;;;;5032792;28;20605;-64
2020/12/15 05:31:39;;;;;;;16.23;11.27;;;6.00;99.90;;;;;;5032512;28;20170;-64
2020/12/15 05:34:05;;;;;;;16.80;11.97;;;6.00;99.90;;;;;;5032723;28;20674;-64
2020/12/15 05:36:32;;;;;;;15.47;11.30;;;6.00;99.90;;;;;;5032496;28;20185;-65
2020/12/15 05:39:08;;;;;;;13.47;10.03;;;6.00;99.90;;;;;;5032782;28;20210;-64
2020/12/15 05:41:35;;;;;;;15.10;11.33;;;5.90;99.90;;;;;;5033742;28;20166;-64
2020/12/15 05:44:01;;;;;;;16.40;11.87;;;5.90;99.90;;;;;;5032525;28;20277;-63
2020/12/15 05:46:28;;;;;;;18.53;12.37;;;5.90;99.90;;;;;;5032415;28;20273;-64
2020/12/15 05:49:02;;;;;;;17.63;11.97;;;6.00;99.90;;;;;;5032364;28;20198;-64
2020/12/15 05:51:41;;;;;;;19.53;13.57;;;5.90;99.90;;;;;;5033551;28;20468;-64
2020/12/15 05:54:11;;;;;;;19.77;12.57;;;5.90;99.90;;;;;;5101426;22;20228;-64
2020/12/15 05:56:38;;;;;;;17.40;12.00;;;5.90;99.90;;;;;;5092044;28;20671;-64
2020/12/15 05:59:20;;;;;;;22.83;15.03;;;5.90;99.90;;;;;;5092376;28;20204;-65
2020/12/15 06:01:51;;;;;;;17.57;12.67;;;5.80;99.90;;;;;;5092206;28;20632;-64
2020/12/15 06:04:17;;;;;;;20.07;12.90;;;5.80;99.90;;;;;;5092236;28;20679;-63
2020/12/15 06:06:44;;;;;;;18.57;12.30;;;5.90;99.90;;;;;;5092526;28;20183;-64
2020/12/15 06:09:16;;;;;;;17.73;12.20;;;5.80;99.90;;;;;;5092550;28;20171;-64
2020/12/15 06:11:45;;;;;;;20.17;13.80;;;5.90;99.90;;;;;;5092368;28;20245;-64
2020/12/15 06:14:12;;;;;;;19.93;13.90;;;5.80;99.90;;;;;;5092179;28;20262;-63
2020/12/15 06:16:40;;;;;;;12.17;8.90;;;5.80;99.90;;;;;;5092262;28;20172;-64
2020/12/15 06:19:12;;;;;;;20.27;13.77;;;5.80;99.90;;;;;;5092299;28;20231;-64
2020/12/15 06:21:56;;;;;;;21.27;13.83;;;5.80;99.90;;;;;;5088761;28;20188;-65
2020/12/15 06:24:38;;;;;;;20.07;12.90;;;5.80;99.90;;;;;;5092215;28;20287;-65
2020/12/15 06:27:05;;;;;;;18.73;12.73;;;5.80;99.90;;;;;;5092355;28;20187;-64
2020/12/15 06:29:32;;;;;;;17.43;12.70;;;5.70;99.90;;;;;;5090416;28;20245;-65
2020/12/15 06:32:00;;;;;;;19.00;14.07;;;5.70;99.90;;;;;;5093900;28;20160;-64
2020/12/15 06:34:27;;;;;;;19.23;14.23;;;5.70;99.90;;;;;;5093885;28;20184;-65
2020/12/15 06:36:55;;;;;;;18.73;13.37;;;5.70;99.90;;;;;;5095383;28;20175;-65
2020/12/15 06:39:24;;;;;;;23.40;14.57;;;5.70;99.90;;;;;;5096104;28;20199;-65
2020/12/15 06:41:59;;;;;;;21.67;15.03;;;5.70;99.90;;;;;;5093441;28;20169;-64
2020/12/15 06:44:37;;;;;;;18.97;12.23;;;5.70;99.90;;;;;;5091892;28;20195;-65
2020/12/15 06:47:04;;;;;;;20.50;13.80;;;5.70;99.90;;;;;;5091373;28;20176;-64
2020/12/15 06:49:32;;;;;;;18.90;14.23;;;5.60;99.90;;;;;;5090422;28;20604;-65
2020/12/15 06:52:28;;;;;;;20.10;14.03;;;5.60;99.90;;;;;;5090856;28;20276;-64
2020/12/15 06:54:57;;;;;;;20.03;14.50;;;5.60;99.90;;;;;;5091237;28;20191;-65
2020/12/15 06:57:30;;;;;;;16.83;12.23;;;5.60;99.90;;;;;;5091209;28;20306;-65
2020/12/15 06:59:58;;;;;;;20.93;13.23;;;5.60;99.90;;;;;;5091310;28;20616;-64
2020/12/15 07:02:29;;;;;;;24.07;16.90;;;5.50;99.90;;;;;;5090626;28;20636;-65
2020/12/15 07:05:11;;;;;;;18.70;12.53;;;5.60;99.90;;;;;;5091096;28;20168;-65
2020/12/15 07:07:48;;;;;;;19.03;13.17;;;5.60;99.90;;;;;;5091047;28;20207;-64
2020/12/15 07:10:14;;;;;;;19.73;13.90;;;5.50;99.90;;;;;;5090956;28;20168;-65
2020/12/15 07:12:41;;;;;;;18.63;14.07;;;5.60;99.90;;;;;;5090454;28;20186;-64
2020/12/15 07:15:07;;;;;;;21.53;14.53;;;5.60;99.90;;;;;;5090968;28;20264;-65
2020/12/15 07:17:33;;;;;;;16.53;11.50;;;5.50;99.90;;;;;;5090742;28;20286;-64
2020/12/15 07:20:01;;;;;;;17.80;13.50;;;5.50;99.90;;;;;;5090615;28;20242;-65
2020/12/15 07:22:26;;;;;;;21.03;14.53;;;5.50;99.90;;;;;;5090554;28;20199;-65
2020/12/15 07:24:52;;;;;;;19.57;13.47;;;5.50;99.90;;;;;;5090574;28;20196;-65
2020/12/15 07:27:19;;;;;;;19.10;13.17;;;5.40;99.90;;;;;;5090526;28;20169;-65
2020/12/15 07:29:54;;;;;;;20.53;13.70;;;5.50;99.90;;;;;;5091134;28;20177;-64
2020/12/15 07:32:20;;;;;;;13.93;9.93;;;5.40;99.90;;;;;;5090436;28;20175;-62
2020/12/15 07:34:45;;;;;;;24.53;13.80;;;5.40;99.90;;;;;;5090969;28;20188;-64
2020/12/15 07:37:18;;;;;;;20.63;15.00;;;5.40;99.90;;;;;;5090911;28;20171;-64
2020/12/15 07:39:45;;;;;;;17.07;11.63;;;5.40;99.90;;;;;;5090619;28;20199;-63
2020/12/15 07:42:10;;;;;;;18.47;12.80;;;5.40;99.90;;;;;;5090478;28;20169;-65
2020/12/15 07:44:36;;;;;;;17.73;13.87;;;5.40;99.90;;;;;;5090528;28;20355;-67
2020/12/15 07:47:02;;;;;;;17.53;12.43;;;5.40;99.90;;;;;;5092225;28;20157;-66
2020/12/15 07:49:27;;;;;;;18.57;12.30;;;5.40;99.90;;;;;;5087614;28;20540;-66
2020/12/15 07:51:53;;;;;;;19.27;13.80;;;5.40;99.90;;;;;;5092943;28;20183;-66
2020/12/15 07:54:19;;;;;;;21.60;15.30;;;5.40;99.90;;;;;;5087731;28;20228;-66
2020/12/15 07:56:47;;;;;;;20.37;15.50;;;5.50;99.90;;;;;;5081607;28;20262;-66
2020/12/15 07:59:14;;;;;;;19.80;14.57;;;5.60;99.90;;;;;;5098106;28;20195;-67
2020/12/15 08:01:39;;;;;;;18.40;13.77;;;5.60;99.90;;;;;;5111456;28;20173;-66
2020/12/15 08:04:13;;;;;;;17.33;11.93;;;5.60;99.90;;;;;;5095463;28;20227;-66
2020/12/15 08:06:44;;;;;;;18.03;14.53;;;5.50;99.90;;;;;;5078504;28;20629;-66
2020/12/15 08:09:14;;;;;;;17.23;12.80;;;5.60;99.90;;;;;;5087890;28;20287;-66
2020/12/15 08:11:48;;;;;;;18.70;14.77;;;5.70;99.90;;;;;;5102141;28;20172;-66
2020/12/15 08:14:15;;;;;;;17.37;12.50;;;5.70;99.90;;;;;;5107451;28;20197;-66
2020/12/15 08:16:42;;;;;;;17.40;13.27;;;5.70;99.90;;;;;;5077330;28;20277;-66
2020/12/15 08:19:07;;;;;;;20.40;13.77;;;5.60;99.90;;;;;;5073991;28;20233;-66
2020/12/15 08:21:50;;;;;;;17.47;13.27;;;5.70;99.90;;;;;;5073674;28;20243;-66
2020/12/15 08:24:26;;;;;;;16.13;13.27;;;5.70;99.90;;;;;;5073966;28;20681;-68
2020/12/15 08:26:52;;;;;;;17.27;13.13;;;5.70;99.90;;;;;;5089328;28;20176;-67
2020/12/15 08:29:20;;;;;;;17.27;12.83;;;5.70;99.90;;;;;;5090217;28;20219;-66
2020/12/15 08:31:46;;;;;;;18.77;13.27;;;5.70;99.90;;;;;;5080686;28;20181;-66
2020/12/15 08:34:20;;;;;;;18.27;13.73;;;5.60;99.90;;;;;;5076801;28;20215;-66
2020/12/15 08:36:50;;;;;;;16.47;12.83;;;5.60;99.90;;;;;;5080240;28;20208;-66
2020/12/15 08:39:22;;;;;;;16.60;12.40;;;5.60;99.90;;;;;;5089218;28;20208;-66
2020/12/15 08:41:56;;;;;;;18.60;11.93;;;5.60;99.90;;;;;;5092656;28;20617;-66
2020/12/15 08:44:23;;;;;;;16.90;13.50;;;5.50;99.90;;;;;;5091128;28;20192;-66
2020/12/15 08:46:56;;;;;;;16.60;12.30;;;5.60;99.90;;;;;;5080156;28;20648;-67
2020/12/15 08:49:23;;;;;;;16.73;12.50;;;5.60;99.90;;;;;;5091882;28;20164;-67
2020/12/15 08:51:51;;;;;;;17.67;13.63;;;5.60;99.90;;;;;;5089200;28;20181;-66
2020/12/15 08:54:19;;;;;;;15.73;12.27;;;5.70;99.90;;;;;;5090873;28;20237;-65
2020/12/15 08:56:46;;;;;;;17.23;12.27;;;5.60;99.90;;;;;;5080166;28;20198;-64
2020/12/15 08:59:20;;;;;;;16.53;11.97;;;5.60;99.90;;;;;;5087965;28;20470;-62
2020/12/15 09:01:46;;;;;;;16.30;12.53;;;5.70;99.90;;;;;;5090810;28;20180;-62
2020/12/15 09:04:23;;;;;;;17.70;13.37;;;5.70;99.90;;;;;;5090242;28;20679;-64
2020/12/15 09:06:49;;;;;;;17.10;13.70;;;5.70;99.90;;;;;;5079770;28;20176;-63
2020/12/15 09:09:14;;;;;;;16.53;12.33;;;5.80;99.90;;;;;;5088679;28;20181;-63
2020/12/15 09:11:40;;;;;;;15.40;12.50;;;5.70;99.90;;;;;;5090405;28;20942;-62
2020/12/15 09:14:06;;;;;;;15.47;11.63;;;5.70;99.90;;;;;;5079031;28;20200;-63
2020/12/15 09:16:39;;;;;;;16.73;12.93;;;5.70;99.90;;;;;;5088996;28;20239;-62
2020/12/15 09:19:16;;;;;;;16.20;12.57;;;5.80;99.90;;;;;;5091174;28;20250;-64
2020/12/15 09:21:53;;;;;;;16.07;12.63;;;5.70;99.90;;;;;;5090484;28;20234;-63
2020/12/15 09:24:19;;;;;;;16.93;13.50;;;5.70;99.90;;;;;;5088150;28;20197;-63
2020/12/15 09:26:44;;;;;;;15.67;12.37;;;5.80;99.90;;;;;;5089083;28;20250;-66
2020/12/15 09:29:11;;;;;;;14.73;12.03;;;5.90;99.90;;;;;;5090936;28;20196;-66
2020/12/15 09:31:39;;;;;;;18.47;15.00;;;6.00;99.90;;;;;;5090808;28;20168;-65
2020/12/15 09:34:05;;;;;;;15.73;12.33;;;6.00;99.90;;;;;;5086365;28;20200;-65
2020/12/15 09:36:30;;;;;;;14.80;12.07;;;6.10;99.90;;;;;;5086000;28;20241;-65
2020/12/15 09:38:56;;;;;;;16.30;12.77;;;6.10;99.90;;;;;;5088351;28;20257;-65
2020/12/15 09:41:21;;;;;;;16.77;13.93;;;6.10;99.90;;;;;;5090692;28;20667;-65
2020/12/15 09:43:47;;;;;;;15.80;12.83;;;6.20;99.90;;;;;;5090064;28;20197;-65
2020/12/15 09:46:13;;;;;;;16.87;14.10;;;6.30;99.90;;;;;;5089820;28;20336;-65
2020/12/15 09:48:39;;;;;;;17.07;12.33;;;6.30;99.90;;;;;;5089359;28;21503;-65
2020/12/15 09:51:04;;;;;;;16.87;11.70;;;6.40;99.90;;;;;;5090058;28;20707;-65
2020/12/15 09:53:30;;;;;;;16.50;11.87;;;6.40;99.90;;;;;;5090118;28;20207;-61
2020/12/15 09:55:56;;;;;;;15.60;11.50;;;6.40;99.90;;;;;;5088778;28;20180;-61
2020/12/15 09:58:22;;;;;;;14.20;11.80;;;6.40;99.90;;;;;;5089842;28;20212;-61
2020/12/15 10:00:47;;;;;;;16.43;11.77;;;6.40;99.90;;;;;;5095678;28;20179;-65
2020/12/15 10:03:13;;;;;;;17.60;12.07;;;6.40;99.90;;;;;;5096757;28;20317;-64
2020/12/15 10:05:40;;;;;;;17.87;11.30;;;6.40;99.90;;;;;;5108076;28;20199;-65
2020/12/15 10:08:06;;;;;;;15.50;12.07;;;6.40;99.90;;;;;;5109224;28;20193;-66
2020/12/15 10:10:31;;;;;;;14.17;12.00;;;6.50;99.90;;;;;;5093115;28;20238;-65
2020/12/15 10:12:57;;;;;;;14.37;12.27;;;6.50;99.90;;;;;;5089891;28;20201;-65
2020/12/15 10:15:24;;;;;;;14.43;12.30;;;6.50;99.90;;;;;;5088611;28;20635;-65
2020/12/15 10:17:49;;;;;;;14.63;12.20;;;6.60;99.90;;;;;;5088860;28;20204;-67
2020/12/15 10:20:15;;;;;;;14.63;12.13;;;6.60;99.90;;;;;;5089652;28;20588;-66
2020/12/15 10:22:41;;;;;;;16.83;12.43;;;6.60;99.90;;;;;;5087787;28;20634;-68
2020/12/15 10:25:07;;;;;;;15.37;12.73;;;6.60;99.90;;;;;;5090250;28;20165;-67
2020/12/15 10:27:32;;;;;;;11.00;9.40;;;6.70;99.90;;;;;;5089684;28;20173;-67
2020/12/15 10:29:58;;;;;;;14.40;11.90;;;6.60;99.90;;;;;;5090623;28;20624;-69
2020/12/15 10:32:24;;;;;;;14.57;12.00;;;6.70;99.90;;;;;;5087283;28;20188;-68
2020/12/15 10:34:51;;;;;;;14.43;12.63;;;6.80;99.90;;;;;;5089578;28;20198;-68
2020/12/15 10:37:20;;;;;;;14.13;11.97;;;6.80;99.90;;;;;;5089053;28;20218;-68
2020/12/15 10:39:46;;;;;;;15.27;12.57;;;6.80;99.90;;;;;;5089953;28;20211;-68
2020/12/15 10:42:11;;;;;;;15.00;11.77;;;6.80;99.90;;;;;;5085621;28;20536;-67
2020/12/15 10:44:37;;;;;;;14.87;10.83;;;6.70;99.90;;;;;;5088069;28;20275;-68
2020/12/15 10:47:02;;;;;;;14.07;11.83;;;6.70;99.90;;;;;;5091689;28;20173;-67
2020/12/15 10:49:28;;;;;;;15.70;11.30;;;6.80;99.90;;;;;;5085323;28;20191;-68
2020/12/15 10:51:54;;;;;;;14.80;12.03;;;6.80;99.90;;;;;;5086572;28;20240;-67
2020/12/15 10:54:19;;;;;;;12.57;10.10;;;6.80;99.90;;;;;;5090905;28;20223;-67
2020/12/15 10:56:45;;;;;;;15.17;12.40;;;6.90;99.90;;;;;;5089169;28;20184;-67
2020/12/15 10:59:10;;;;;;;12.23;10.93;;;7.00;99.90;;;;;;5086574;28;20214;-71
2020/12/15 11:01:36;;;;;;;15.27;11.33;;;7.00;99.90;;;;;;5088156;28;20200;-68
2020/12/15 11:04:01;;;;;;;12.50;10.90;;;7.10;99.90;;;;;;5085676;28;21138;-66
2020/12/15 11:06:27;;;;;;;14.03;11.43;;;7.20;99.90;;;;;;5088604;28;20219;-67
2020/12/15 11:08:53;;;;;;;12.47;10.00;;;7.20;99.90;;;;;;5085957;28;20213;-67
2020/12/15 11:11:18;;;;;;;12.50;10.53;;;7.20;99.90;;;;;;5088335;28;20230;-67
2020/12/15 11:13:44;;;;;;;14.80;11.93;;;7.20;99.90;;;;;;5088833;28;20192;-66
2020/12/15 11:16:09;;;;;;;15.27;11.57;;;7.30;99.90;;;;;;5083129;28;20184;-62
2020/12/15 11:18:35;;;;;;;12.97;10.73;;;7.40;99.90;;;;;;5085790;28;20702;-62
2020/12/15 11:21:00;;;;;;;12.73;10.73;;;7.40;99.90;;;;;;5087220;28;20230;-66
2020/12/15 11:23:26;;;;;;;13.80;11.77;;;7.40;99.90;;;;;;5089090;28;20683;-64
2020/12/15 11:25:51;;;;;;;14.33;11.47;;;7.40;99.90;;;;;;5086105;28;20200;-64
2020/12/15 11:28:17;;;;;;;12.77;10.97;;;7.40;99.90;;;;;;5088031;28;20215;-65
2020/12/15 11:30:43;;;;;;;13.77;11.40;;;7.30;99.90;;;;;;5083829;28;20261;-65
2020/12/15 11:33:09;;;;;;;13.30;11.30;;;7.30;99.90;;;;;;5084228;28;20644;-66
2020/12/15 11:35:34;;;;;;;14.30;11.87;;;7.40;99.90;;;;;;5085350;28;20270;-67
2020/12/15 11:38:01;;;;;;;14.67;11.87;;;7.60;99.90;;;;;;5087427;28;20251;-66
2020/12/15 11:40:27;;;;;;;16.30;12.73;;;7.60;99.90;;;;;;5094213;28;20172;-64
2020/12/15 11:42:57;;;;;;;13.40;11.73;;;7.60;99.90;;;;;;5088436;28;20561;-66
2020/12/15 11:45:24;;;;;;;13.07;10.83;;;7.70;99.90;;;;;;5080252;28;20488;-66
2020/12/15 11:47:51;;;;;;;11.53;9.70;;;7.60;99.90;;;;;;5088672;28;20183;-66
2020/12/15 11:50:17;;;;;;;11.67;10.17;;;7.60;99.90;;;;;;5105665;28;20192;-66
2020/12/15 11:55:20;;;;;;;14.93;10.90;;;7.70;99.90;;;;;;5068991;28;20684;-62
2020/12/15 11:57:46;;;;;;;12.67;11.33;;;7.70;99.90;;;;;;5052349;28;20180;-61
2020/12/15 12:00:11;;;;;;;14.53;12.53;;;7.70;99.90;;;;;;5076030;28;20176;-73
2020/12/15 12:02:38;;;;;;;12.87;10.10;;;7.80;99.90;;;;;;5075328;28;20565;-73
2020/12/15 12:05:03;;;;;;;13.53;11.27;;;7.70;99.90;;;;;;5080627;28;20265;-64
2020/12/15 14:14:17;;;;;;;15.47;11.73;;;7.10;99.90;;;;;;5142846;27;20539;-81
2020/12/15 14:16:44;;;;;;;13.40;9.73;;;7.10;99.90;;;;;;5120039;28;20201;-78
2020/12/15 14:19:10;;;;;;;16.20;13.67;;;7.00;99.90;;;;;;5107642;28;20238;-72
2020/12/15 14:21:41;;;;;;;14.10;11.63;;;7.00;99.90;;;;;;5104543;28;20194;-75
2020/12/15 14:24:07;;;;;;;16.00;12.20;;;7.10;99.90;;;;;;5106774;28;20183;-77
2020/12/15 14:26:32;;;;;;;18.67;12.83;;;7.10;99.90;;;;;;5103516;22;20716;-65
2020/12/15 14:28:58;;;;;;;14.10;11.50;;;7.10;99.90;;;;;;5075918;28;20181;-67
2020/12/15 14:31:23;;;;;;;16.27;11.60;;;7.10;99.90;;;;;;5076437;28;20256;-68
2020/12/15 14:33:49;;;;;;;14.80;11.47;;;7.00;99.90;;;;;;5075630;28;20196;-68
2020/12/15 14:36:15;;;;;;;14.20;12.10;;;7.10;99.90;;;;;;5079122;28;20211;-67
2020/12/15 14:38:40;;;;;;;16.43;11.97;;;7.10;99.90;;;;;;5084198;28;20213;-68
2020/12/15 14:41:06;;;;;;;14.87;11.60;;;7.10;99.90;;;;;;5083188;28;20782;-67
2020/12/15 14:43:32;;;;;;;17.07;13.17;;;7.10;99.90;;;;;;5084324;28;20225;-68
2020/12/15 14:45:57;;;;;;;13.87;11.77;;;7.10;99.90;;;;;;5083057;28;20254;-66
2020/12/15 14:48:22;;;;;;;17.60;12.90;;;7.10;99.90;;;;;;5083307;28;20196;-66
2020/12/15 14:50:48;;;;;;;16.03;12.13;;;7.00;99.90;;;;;;5085866;28;20659;-66